ROMMA est une association bénévole à but non lucratif. Votre soutien est indispensable : ADHERER à ROMMA ou FAIRE un DON

Le Versoud - (38, Isère)

Vallée du Grésivaudan (220 m)   Longitude: 05° 51' 44" E   Latitude: 45° 13' 06" N Station partenaire n°6
 

Détail journalier du     <<     >>

Température Humidité Pression Vent Dir Rafale Dir. rafale Ensol.
Heure (°C) (%) (hPa) (km/h) (km/h) (min)
01:00 17.694101500---0
02:00 17.395101500---0
03:00 17.495101500---0
04:00 17.194101400---0
05:00 16.995101400---0
06:00 17.095101500---0
07:00 17.195101500---0
08:00 17.394101500---0
09:00 19.287101500---20
10:00 19.784101502NE15
11:00 17.49110151---18OSO0
12:00 16.89210161S10S0
13:00 17.788101608S0
14:00 20.4761015013ONO25
15:00 21.9721015011SO60
16:00 23.4641014016OSO60
17:00 24.8471014011ONO60
18:00 25.451101303ONO60
19:00 25.253101308NNO60
20:00 25.354101303NNO60
21:00 22.372101302NNO10
22:00 20.178101400---0
23:00 19.181101502NNO0
minuit 18.184101500---0

Graphique du 22-06-2019

 

Serveur OMMA